sensor_id;sensor_type;location;lat;lon;timestamp;P1;durP1;ratioP1;P2;durP2;ratioP2
14611;SDS011;7392;52.078;11.650;2023-01-26T00:01:15;8.30;;;6.93;;
14611;SDS011;7392;52.078;11.650;2023-01-26T00:03:44;9.40;;;6.70;;
14611;SDS011;7392;52.078;11.650;2023-01-26T00:06:13;9.83;;;7.40;;
14611;SDS011;7392;52.078;11.650;2023-01-26T00:08:43;11.73;;;7.97;;
14611;SDS011;7392;52.078;11.650;2023-01-26T00:11:12;10.43;;;8.13;;
14611;SDS011;7392;52.078;11.650;2023-01-26T00:13:42;10.80;;;7.83;;
14611;SDS011;7392;52.078;11.650;2023-01-26T00:16:11;10.53;;;7.13;;
14611;SDS011;7392;52.078;11.650;2023-01-26T00:18:41;10.47;;;7.63;;
14611;SDS011;7392;52.078;11.650;2023-01-26T00:21:10;10.87;;;7.93;;
14611;SDS011;7392;52.078;11.650;2023-01-26T00:23:40;11.17;;;8.27;;
14611;SDS011;7392;52.078;11.650;2023-01-26T00:26:08;12.43;;;8.60;;
14611;SDS011;7392;52.078;11.650;2023-01-26T00:28:39;10.47;;;8.10;;
14611;SDS011;7392;52.078;11.650;2023-01-26T00:31:08;12.17;;;8.67;;
14611;SDS011;7392;52.078;11.650;2023-01-26T00:33:39;11.27;;;8.33;;
14611;SDS011;7392;52.078;11.650;2023-01-26T00:36:09;12.17;;;8.40;;
14611;SDS011;7392;52.078;11.650;2023-01-26T00:38:38;10.63;;;8.07;;
14611;SDS011;7392;52.078;11.650;2023-01-26T00:41:07;12.13;;;8.27;;
14611;SDS011;7392;52.078;11.650;2023-01-26T00:43:34;10.70;;;7.57;;
14611;SDS011;7392;52.078;11.650;2023-01-26T00:46:02;10.13;;;6.80;;
14611;SDS011;7392;52.078;11.650;2023-01-26T00:48:29;8.67;;;6.67;;
14611;SDS011;7392;52.078;11.650;2023-01-26T00:50:59;9.20;;;6.57;;
14611;SDS011;7392;52.078;11.650;2023-01-26T00:53:27;10.07;;;7.67;;
14611;SDS011;7392;52.078;11.650;2023-01-26T00:55:55;8.33;;;6.47;;
14611;SDS011;7392;52.078;11.650;2023-01-26T00:58:23;9.77;;;7.00;;
14611;SDS011;7392;52.078;11.650;2023-01-26T01:00:51;10.67;;;6.80;;
14611;SDS011;7392;52.078;11.650;2023-01-26T01:03:19;9.33;;;6.57;;
14611;SDS011;7392;52.078;11.650;2023-01-26T01:05:47;8.30;;;6.87;;
14611;SDS011;7392;52.078;11.650;2023-01-26T01:08:16;8.70;;;6.60;;
14611;SDS011;7392;52.078;11.650;2023-01-26T01:10:43;10.70;;;6.83;;
14611;SDS011;7392;52.078;11.650;2023-01-26T01:13:11;9.23;;;6.57;;
14611;SDS011;7392;52.078;11.650;2023-01-26T01:15:38;9.03;;;6.67;;
14611;SDS011;7392;52.078;11.650;2023-01-26T01:18:06;8.57;;;6.87;;
14611;SDS011;7392;52.078;11.650;2023-01-26T01:20:33;10.77;;;7.03;;
14611;SDS011;7392;52.078;11.650;2023-01-26T01:23:01;9.87;;;7.33;;
14611;SDS011;7392;52.078;11.650;2023-01-26T01:25:30;10.03;;;7.07;;
14611;SDS011;7392;52.078;11.650;2023-01-26T01:27:59;10.67;;;7.47;;
14611;SDS011;7392;52.078;11.650;2023-01-26T01:30:27;12.17;;;9.03;;
14611;SDS011;7392;52.078;11.650;2023-01-26T01:32:54;11.77;;;8.57;;
14611;SDS011;7392;52.078;11.650;2023-01-26T01:35:22;11.60;;;8.60;;
14611;SDS011;7392;52.078;11.650;2023-01-26T01:37:50;11.27;;;8.17;;
14611;SDS011;7392;52.078;11.650;2023-01-26T01:40:17;12.30;;;8.40;;
14611;SDS011;7392;52.078;11.650;2023-01-26T01:42:47;11.33;;;8.00;;
14611;SDS011;7392;52.078;11.650;2023-01-26T01:45:37;10.20;;;7.70;;
14611;SDS011;7392;52.078;11.650;2023-01-26T01:48:10;10.43;;;7.40;;
14611;SDS011;7392;52.078;11.650;2023-01-26T01:50:44;10.60;;;7.87;;
14611;SDS011;7392;52.078;11.650;2023-01-26T01:53:14;8.90;;;7.47;;
14611;SDS011;7392;52.078;11.650;2023-01-26T01:55:50;10.20;;;7.27;;
14611;SDS011;7392;52.078;11.650;2023-01-26T01:58:22;8.90;;;7.30;;
14611;SDS011;7392;52.078;11.650;2023-01-26T02:00:50;8.60;;;6.70;;
14611;SDS011;7392;52.078;11.650;2023-01-26T02:03:18;9.20;;;6.13;;
14611;SDS011;7392;52.078;11.650;2023-01-26T02:05:49;7.43;;;5.80;;
14611;SDS011;7392;52.078;11.650;2023-01-26T02:08:23;7.57;;;5.50;;
14611;SDS011;7392;52.078;11.650;2023-01-26T02:10:54;6.33;;;5.13;;
14611;SDS011;7392;52.078;11.650;2023-01-26T02:13:26;6.60;;;4.57;;
14611;SDS011;7392;52.078;11.650;2023-01-26T02:15:56;5.90;;;4.50;;
14611;SDS011;7392;52.078;11.650;2023-01-26T02:18:26;6.17;;;4.60;;
14611;SDS011;7392;52.078;11.650;2023-01-26T02:20:57;5.80;;;4.27;;
14611;SDS011;7392;52.078;11.650;2023-01-26T02:23:30;5.17;;;4.57;;
14611;SDS011;7392;52.078;11.650;2023-01-26T02:26:10;5.63;;;4.60;;
14611;SDS011;7392;52.078;11.650;2023-01-26T02:28:40;6.17;;;4.50;;
14611;SDS011;7392;52.078;11.650;2023-01-26T02:31:10;4.73;;;4.23;;
14611;SDS011;7392;52.078;11.650;2023-01-26T02:33:40;5.80;;;5.20;;
14611;SDS011;7392;52.078;11.650;2023-01-26T02:36:10;5.60;;;4.70;;
14611;SDS011;7392;52.078;11.650;2023-01-26T02:38:47;6.40;;;4.67;;
14611;SDS011;7392;52.078;11.650;2023-01-26T02:41:19;4.70;;;4.20;;
14611;SDS011;7392;52.078;11.650;2023-01-26T02:44:01;4.70;;;3.73;;
14611;SDS011;7392;52.078;11.650;2023-01-26T02:46:31;4.53;;;3.43;;
14611;SDS011;7392;52.078;11.650;2023-01-26T02:48:59;4.50;;;3.67;;
14611;SDS011;7392;52.078;11.650;2023-01-26T02:51:45;3.83;;;2.93;;
14611;SDS011;7392;52.078;11.650;2023-01-26T02:54:13;5.00;;;3.20;;
14611;SDS011;7392;52.078;11.650;2023-01-26T02:57:03;4.87;;;3.77;;
14611;SDS011;7392;52.078;11.650;2023-01-26T02:59:29;3.27;;;2.97;;
14611;SDS011;7392;52.078;11.650;2023-01-26T03:01:57;3.40;;;2.83;;
14611;SDS011;7392;52.078;11.650;2023-01-26T03:04:25;3.80;;;3.27;;
14611;SDS011;7392;52.078;11.650;2023-01-26T03:06:53;4.13;;;3.47;;
14611;SDS011;7392;52.078;11.650;2023-01-26T03:09:20;4.83;;;3.60;;
14611;SDS011;7392;52.078;11.650;2023-01-26T03:11:48;4.93;;;3.80;;
14611;SDS011;7392;52.078;11.650;2023-01-26T03:14:18;4.33;;;3.50;;
14611;SDS011;7392;52.078;11.650;2023-01-26T03:16:47;4.47;;;3.47;;
14611;SDS011;7392;52.078;11.650;2023-01-26T03:19:15;3.93;;;3.50;;
14611;SDS011;7392;52.078;11.650;2023-01-26T03:22:07;4.27;;;3.53;;
14611;SDS011;7392;52.078;11.650;2023-01-26T03:24:53;4.17;;;3.70;;
14611;SDS011;7392;52.078;11.650;2023-01-26T03:27:40;5.73;;;4.43;;
14611;SDS011;7392;52.078;11.650;2023-01-26T03:30:13;6.70;;;4.97;;
14611;SDS011;7392;52.078;11.650;2023-01-26T03:32:44;7.20;;;5.63;;
14611;SDS011;7392;52.078;11.650;2023-01-26T03:35:14;5.90;;;4.80;;
14611;SDS011;7392;52.078;11.650;2023-01-26T03:37:48;5.47;;;4.73;;
14611;SDS011;7392;52.078;11.650;2023-01-26T03:40:35;6.63;;;5.10;;
14611;SDS011;7392;52.078;11.650;2023-01-26T03:43:20;6.13;;;4.73;;
14611;SDS011;7392;52.078;11.650;2023-01-26T03:46:07;5.63;;;4.50;;
14611;SDS011;7392;52.078;11.650;2023-01-26T03:48:53;5.57;;;4.33;;
14611;SDS011;7392;52.078;11.650;2023-01-26T03:51:38;5.97;;;4.47;;
14611;SDS011;7392;52.078;11.650;2023-01-26T03:54:24;5.53;;;4.73;;
14611;SDS011;7392;52.078;11.650;2023-01-26T03:57:09;6.50;;;4.97;;
14611;SDS011;7392;52.078;11.650;2023-01-26T03:59:36;6.80;;;5.10;;
14611;SDS011;7392;52.078;11.650;2023-01-26T04:02:10;6.40;;;4.80;;
14611;SDS011;7392;52.078;11.650;2023-01-26T04:04:56;7.23;;;5.37;;
14611;SDS011;7392;52.078;11.650;2023-01-26T04:07:45;6.43;;;4.77;;
14611;SDS011;7392;52.078;11.650;2023-01-26T04:10:31;6.13;;;4.60;;
14611;SDS011;7392;52.078;11.650;2023-01-26T04:13:01;5.13;;;4.00;;
14611;SDS011;7392;52.078;11.650;2023-01-26T04:15:52;5.00;;;4.00;;
14611;SDS011;7392;52.078;11.650;2023-01-26T04:18:38;5.50;;;4.33;;
14611;SDS011;7392;52.078;11.650;2023-01-26T04:21:23;5.67;;;4.60;;
14611;SDS011;7392;52.078;11.650;2023-01-26T04:23:56;5.17;;;4.47;;
14611;SDS011;7392;52.078;11.650;2023-01-26T04:26:24;6.20;;;4.97;;
14611;SDS011;7392;52.078;11.650;2023-01-26T04:29:00;5.00;;;4.17;;
14611;SDS011;7392;52.078;11.650;2023-01-26T04:31:29;6.43;;;4.70;;
14611;SDS011;7392;52.078;11.650;2023-01-26T04:33:58;6.03;;;4.47;;
14611;SDS011;7392;52.078;11.650;2023-01-26T04:36:27;6.23;;;4.70;;
14611;SDS011;7392;52.078;11.650;2023-01-26T04:38:55;8.00;;;5.57;;
14611;SDS011;7392;52.078;11.650;2023-01-26T04:41:23;6.03;;;4.77;;
14611;SDS011;7392;52.078;11.650;2023-01-26T04:43:57;5.63;;;4.60;;
14611;SDS011;7392;52.078;11.650;2023-01-26T04:46:25;4.30;;;3.80;;
14611;SDS011;7392;52.078;11.650;2023-01-26T04:48:53;5.17;;;4.43;;
14611;SDS011;7392;52.078;11.650;2023-01-26T04:51:23;7.57;;;5.77;;
14611;SDS011;7392;52.078;11.650;2023-01-26T04:53:51;7.40;;;5.83;;
14611;SDS011;7392;52.078;11.650;2023-01-26T04:56:21;7.43;;;5.43;;
14611;SDS011;7392;52.078;11.650;2023-01-26T04:58:51;7.00;;;5.30;;
14611;SDS011;7392;52.078;11.650;2023-01-26T05:01:21;8.87;;;6.17;;
14611;SDS011;7392;52.078;11.650;2023-01-26T05:03:49;8.17;;;5.97;;
14611;SDS011;7392;52.078;11.650;2023-01-26T05:06:17;7.27;;;5.33;;
14611;SDS011;7392;52.078;11.650;2023-01-26T05:08:48;7.13;;;5.20;;
14611;SDS011;7392;52.078;11.650;2023-01-26T05:11:16;6.90;;;4.90;;
14611;SDS011;7392;52.078;11.650;2023-01-26T05:13:52;6.37;;;5.10;;
14611;SDS011;7392;52.078;11.650;2023-01-26T05:16:33;7.13;;;5.33;;
14611;SDS011;7392;52.078;11.650;2023-01-26T05:19:05;7.23;;;5.90;;
14611;SDS011;7392;52.078;11.650;2023-01-26T05:21:40;6.87;;;5.47;;
14611;SDS011;7392;52.078;11.650;2023-01-26T05:24:10;7.23;;;5.60;;
14611;SDS011;7392;52.078;11.650;2023-01-26T05:27:01;7.07;;;5.10;;
14611;SDS011;7392;52.078;11.650;2023-01-26T05:29:50;7.37;;;5.80;;
14611;SDS011;7392;52.078;11.650;2023-01-26T05:32:20;7.23;;;5.50;;
14611;SDS011;7392;52.078;11.650;2023-01-26T05:34:48;8.33;;;6.77;;
14611;SDS011;7392;52.078;11.650;2023-01-26T05:37:16;9.60;;;7.10;;
14611;SDS011;7392;52.078;11.650;2023-01-26T05:39:45;9.50;;;6.90;;
14611;SDS011;7392;52.078;11.650;2023-01-26T05:42:13;8.10;;;6.83;;
14611;SDS011;7392;52.078;11.650;2023-01-26T05:44:40;8.37;;;6.13;;
14611;SDS011;7392;52.078;11.650;2023-01-26T05:47:11;7.10;;;5.70;;
14611;SDS011;7392;52.078;11.650;2023-01-26T05:49:40;8.47;;;6.10;;
14611;SDS011;7392;52.078;11.650;2023-01-26T05:52:15;9.20;;;6.83;;
14611;SDS011;7392;52.078;11.650;2023-01-26T05:54:45;10.30;;;7.40;;
14611;SDS011;7392;52.078;11.650;2023-01-26T05:57:13;9.77;;;7.57;;
14611;SDS011;7392;52.078;11.650;2023-01-26T05:59:47;10.23;;;7.47;;
14611;SDS011;7392;52.078;11.650;2023-01-26T06:02:16;8.50;;;6.70;;
14611;SDS011;7392;52.078;11.650;2023-01-26T06:04:44;9.67;;;7.03;;
14611;SDS011;7392;52.078;11.650;2023-01-26T06:07:11;10.53;;;7.73;;
14611;SDS011;7392;52.078;11.650;2023-01-26T06:09:46;10.60;;;7.77;;
14611;SDS011;7392;52.078;11.650;2023-01-26T06:12:20;10.43;;;7.73;;
14611;SDS011;7392;52.078;11.650;2023-01-26T06:14:54;10.57;;;7.97;;
14611;SDS011;7392;52.078;11.650;2023-01-26T06:17:24;8.87;;;6.67;;
14611;SDS011;7392;52.078;11.650;2023-01-26T06:19:56;9.00;;;6.90;;
14611;SDS011;7392;52.078;11.650;2023-01-26T06:22:24;13.83;;;9.47;;
14611;SDS011;7392;52.078;11.650;2023-01-26T06:24:53;14.00;;;9.80;;
14611;SDS011;7392;52.078;11.650;2023-01-26T06:27:21;12.77;;;8.93;;
14611;SDS011;7392;52.078;11.650;2023-01-26T06:29:50;11.60;;;8.67;;
14611;SDS011;7392;52.078;11.650;2023-01-26T06:32:18;9.80;;;7.63;;
14611;SDS011;7392;52.078;11.650;2023-01-26T06:34:50;8.73;;;6.73;;
14611;SDS011;7392;52.078;11.650;2023-01-26T06:37:20;9.47;;;6.80;;
14611;SDS011;7392;52.078;11.650;2023-01-26T06:39:49;7.43;;;6.10;;
14611;SDS011;7392;52.078;11.650;2023-01-26T06:42:18;8.27;;;6.50;;
14611;SDS011;7392;52.078;11.650;2023-01-26T06:44:46;8.97;;;6.90;;
14611;SDS011;7392;52.078;11.650;2023-01-26T06:47:15;8.33;;;6.17;;
14611;SDS011;7392;52.078;11.650;2023-01-26T06:49:43;12.07;;;8.13;;
14611;SDS011;7392;52.078;11.650;2023-01-26T06:52:18;10.10;;;7.57;;
14611;SDS011;7392;52.078;11.650;2023-01-26T06:54:50;10.40;;;6.93;;
14611;SDS011;7392;52.078;11.650;2023-01-26T06:57:25;10.63;;;6.70;;
14611;SDS011;7392;52.078;11.650;2023-01-26T07:00:13;9.67;;;6.80;;
14611;SDS011;7392;52.078;11.650;2023-01-26T07:03:11;9.63;;;6.23;;
14611;SDS011;7392;52.078;11.650;2023-01-26T07:05:39;8.63;;;6.67;;
14611;SDS011;7392;52.078;11.650;2023-01-26T07:08:06;8.67;;;6.17;;
14611;SDS011;7392;52.078;11.650;2023-01-26T07:10:34;7.83;;;6.27;;
14611;SDS011;7392;52.078;11.650;2023-01-26T07:13:04;7.83;;;5.83;;
14611;SDS011;7392;52.078;11.650;2023-01-26T07:15:32;7.60;;;5.50;;
14611;SDS011;7392;52.078;11.650;2023-01-26T07:17:59;8.77;;;5.90;;
14611;SDS011;7392;52.078;11.650;2023-01-26T07:20:27;12.17;;;7.80;;
14611;SDS011;7392;52.078;11.650;2023-01-26T07:22:55;13.40;;;9.23;;
14611;SDS011;7392;52.078;11.650;2023-01-26T07:25:24;16.10;;;10.60;;
14611;SDS011;7392;52.078;11.650;2023-01-26T07:27:54;17.87;;;11.80;;
14611;SDS011;7392;52.078;11.650;2023-01-26T07:30:23;16.43;;;11.27;;
14611;SDS011;7392;52.078;11.650;2023-01-26T07:32:52;16.87;;;11.60;;
14611;SDS011;7392;52.078;11.650;2023-01-26T07:35:19;12.67;;;9.10;;
14611;SDS011;7392;52.078;11.650;2023-01-26T07:37:47;13.30;;;9.63;;
14611;SDS011;7392;52.078;11.650;2023-01-26T07:40:14;15.47;;;10.23;;
14611;SDS011;7392;52.078;11.650;2023-01-26T07:42:42;16.40;;;10.30;;
14611;SDS011;7392;52.078;11.650;2023-01-26T07:45:39;12.70;;;9.70;;
14611;SDS011;7392;52.078;11.650;2023-01-26T07:48:11;14.83;;;9.47;;
14611;SDS011;7392;52.078;11.650;2023-01-26T07:50:39;13.83;;;9.90;;
14611;SDS011;7392;52.078;11.650;2023-01-26T07:53:07;13.73;;;9.47;;
14611;SDS011;7392;52.078;11.650;2023-01-26T07:55:38;14.63;;;9.97;;
14611;SDS011;7392;52.078;11.650;2023-01-26T07:58:05;14.03;;;10.00;;
14611;SDS011;7392;52.078;11.650;2023-01-26T08:00:33;13.90;;;10.00;;
14611;SDS011;7392;52.078;11.650;2023-01-26T08:03:01;17.93;;;12.30;;
14611;SDS011;7392;52.078;11.650;2023-01-26T08:05:29;17.00;;;12.10;;
14611;SDS011;7392;52.078;11.650;2023-01-26T08:07:57;17.17;;;12.17;;
14611;SDS011;7392;52.078;11.650;2023-01-26T08:10:25;16.80;;;10.80;;
14611;SDS011;7392;52.078;11.650;2023-01-26T08:12:57;15.40;;;10.53;;
14611;SDS011;7392;52.078;11.650;2023-01-26T08:15:25;14.13;;;9.57;;
14611;SDS011;7392;52.078;11.650;2023-01-26T08:17:53;12.33;;;9.03;;
14611;SDS011;7392;52.078;11.650;2023-01-26T08:20:22;11.70;;;8.50;;
14611;SDS011;7392;52.078;11.650;2023-01-26T08:22:50;11.73;;;8.50;;
14611;SDS011;7392;52.078;11.650;2023-01-26T08:25:17;14.20;;;9.77;;
14611;SDS011;7392;52.078;11.650;2023-01-26T08:27:45;14.27;;;9.10;;
14611;SDS011;7392;52.078;11.650;2023-01-26T08:30:12;14.27;;;9.73;;
14611;SDS011;7392;52.078;11.650;2023-01-26T08:32:41;14.00;;;10.37;;
14611;SDS011;7392;52.078;11.650;2023-01-26T08:35:08;17.73;;;11.63;;
14611;SDS011;7392;52.078;11.650;2023-01-26T08:37:37;16.97;;;11.40;;
14611;SDS011;7392;52.078;11.650;2023-01-26T08:40:05;16.73;;;11.13;;
14611;SDS011;7392;52.078;11.650;2023-01-26T08:42:34;20.23;;;13.53;;
14611;SDS011;7392;52.078;11.650;2023-01-26T08:45:02;17.00;;;11.87;;
14611;SDS011;7392;52.078;11.650;2023-01-26T08:47:30;24.73;;;14.97;;
14611;SDS011;7392;52.078;11.650;2023-01-26T08:49:57;23.07;;;14.33;;
14611;SDS011;7392;52.078;11.650;2023-01-26T08:52:25;21.93;;;13.80;;
14611;SDS011;7392;52.078;11.650;2023-01-26T08:54:54;23.93;;;14.50;;
14611;SDS011;7392;52.078;11.650;2023-01-26T08:57:21;25.20;;;15.50;;
14611;SDS011;7392;52.078;11.650;2023-01-26T08:59:49;22.03;;;13.53;;
14611;SDS011;7392;52.078;11.650;2023-01-26T09:02:18;20.90;;;12.87;;
14611;SDS011;7392;52.078;11.650;2023-01-26T09:04:46;20.63;;;13.17;;
14611;SDS011;7392;52.078;11.650;2023-01-26T09:07:13;18.53;;;11.87;;
14611;SDS011;7392;52.078;11.650;2023-01-26T09:09:41;17.17;;;11.43;;
14611;SDS011;7392;52.078;11.650;2023-01-26T09:12:10;19.83;;;12.30;;
14611;SDS011;7392;52.078;11.650;2023-01-26T09:14:37;17.43;;;10.93;;
14611;SDS011;7392;52.078;11.650;2023-01-26T09:17:06;17.13;;;10.80;;
14611;SDS011;7392;52.078;11.650;2023-01-26T09:19:33;16.03;;;9.63;;
14611;SDS011;7392;52.078;11.650;2023-01-26T09:22:01;17.00;;;10.07;;
14611;SDS011;7392;52.078;11.650;2023-01-26T09:24:29;16.47;;;10.53;;
14611;SDS011;7392;52.078;11.650;2023-01-26T09:26:56;15.77;;;10.00;;
14611;SDS011;7392;52.078;11.650;2023-01-26T09:29:25;17.40;;;10.77;;
14611;SDS011;7392;52.078;11.650;2023-01-26T09:31:52;15.87;;;10.67;;
14611;SDS011;7392;52.078;11.650;2023-01-26T09:34:20;14.07;;;9.73;;
14611;SDS011;7392;52.078;11.650;2023-01-26T09:36:50;13.60;;;8.73;;
14611;SDS011;7392;52.078;11.650;2023-01-26T09:39:17;15.07;;;9.27;;
14611;SDS011;7392;52.078;11.650;2023-01-26T09:41:48;16.10;;;10.07;;
14611;SDS011;7392;52.078;11.650;2023-01-26T09:44:26;14.87;;;9.63;;
14611;SDS011;7392;52.078;11.650;2023-01-26T09:47:00;14.10;;;9.47;;
14611;SDS011;7392;52.078;11.650;2023-01-26T09:49:36;11.93;;;8.57;;
14611;SDS011;7392;52.078;11.650;2023-01-26T09:52:13;13.93;;;9.03;;
14611;SDS011;7392;52.078;11.650;2023-01-26T09:54:47;13.43;;;8.77;;
14611;SDS011;7392;52.078;11.650;2023-01-26T09:57:18;12.97;;;8.73;;
14611;SDS011;7392;52.078;11.650;2023-01-26T09:59:53;12.57;;;8.50;;
14611;SDS011;7392;52.078;11.650;2023-01-26T10:02:30;16.10;;;9.70;;
14611;SDS011;7392;52.078;11.650;2023-01-26T10:05:10;13.77;;;9.17;;
14611;SDS011;7392;52.078;11.650;2023-01-26T10:07:43;11.70;;;7.67;;
14611;SDS011;7392;52.078;11.650;2023-01-26T10:10:13;11.27;;;7.53;;
14611;SDS011;7392;52.078;11.650;2023-01-26T10:12:46;9.33;;;6.47;;
14611;SDS011;7392;52.078;11.650;2023-01-26T10:15:26;9.73;;;6.27;;
14611;SDS011;7392;52.078;11.650;2023-01-26T10:17:58;10.37;;;6.47;;
14611;SDS011;7392;52.078;11.650;2023-01-26T10:20:31;9.53;;;6.03;;
14611;SDS011;7392;52.078;11.650;2023-01-26T10:23:03;10.20;;;6.23;;
14611;SDS011;7392;52.078;11.650;2023-01-26T10:25:34;9.03;;;5.63;;
14611;SDS011;7392;52.078;11.650;2023-01-26T10:28:10;7.40;;;4.87;;
14611;SDS011;7392;52.078;11.650;2023-01-26T10:30:41;6.73;;;4.53;;
14611;SDS011;7392;52.078;11.650;2023-01-26T10:33:12;5.63;;;3.97;;
14611;SDS011;7392;52.078;11.650;2023-01-26T10:35:42;6.87;;;4.43;;
14611;SDS011;7392;52.078;11.650;2023-01-26T10:38:26;6.73;;;4.30;;
14611;SDS011;7392;52.078;11.650;2023-01-26T10:41:19;5.27;;;4.20;;
14611;SDS011;7392;52.078;11.650;2023-01-26T10:43:50;6.57;;;4.10;;
14611;SDS011;7392;52.078;11.650;2023-01-26T10:46:24;7.43;;;4.73;;
14611;SDS011;7392;52.078;11.650;2023-01-26T10:48:57;7.57;;;4.83;;
14611;SDS011;7392;52.078;11.650;2023-01-26T10:51:27;6.90;;;4.50;;
14611;SDS011;7392;52.078;11.650;2023-01-26T10:54:13;8.23;;;4.70;;
14611;SDS011;7392;52.078;11.650;2023-01-26T10:56:49;8.47;;;5.00;;
14611;SDS011;7392;52.078;11.650;2023-01-26T10:59:24;8.97;;;5.30;;
14611;SDS011;7392;52.078;11.650;2023-01-26T11:01:56;8.03;;;5.40;;
14611;SDS011;7392;52.078;11.650;2023-01-26T11:04:27;8.10;;;5.17;;
14611;SDS011;7392;52.078;11.650;2023-01-26T11:06:55;8.07;;;5.07;;
14611;SDS011;7392;52.078;11.650;2023-01-26T11:09:24;8.23;;;4.97;;
14611;SDS011;7392;52.078;11.650;2023-01-26T11:11:57;6.83;;;4.73;;
14611;SDS011;7392;52.078;11.650;2023-01-26T11:14:27;8.17;;;4.87;;
14611;SDS011;7392;52.078;11.650;2023-01-26T11:16:59;6.80;;;4.87;;
14611;SDS011;7392;52.078;11.650;2023-01-26T11:22:36;5.90;;;4.00;;
14611;SDS011;7392;52.078;11.650;2023-01-26T11:25:16;6.57;;;4.37;;
14611;SDS011;7392;52.078;11.650;2023-01-26T11:27:50;6.73;;;4.53;;
14611;SDS011;7392;52.078;11.650;2023-01-26T11:30:35;5.40;;;3.90;;
14611;SDS011;7392;52.078;11.650;2023-01-26T11:33:17;6.87;;;4.40;;
14611;SDS011;7392;52.078;11.650;2023-01-26T11:35:53;5.80;;;4.03;;
14611;SDS011;7392;52.078;11.650;2023-01-26T11:38:31;5.77;;;3.83;;
14611;SDS011;7392;52.078;11.650;2023-01-26T11:44:01;7.87;;;4.67;;
14611;SDS011;7392;52.078;11.650;2023-01-26T11:46:51;8.20;;;4.77;;
14611;SDS011;7392;52.078;11.650;2023-01-26T11:49:34;7.90;;;5.13;;
14611;SDS011;7392;52.078;11.650;2023-01-26T11:52:14;9.73;;;5.70;;
14611;SDS011;7392;52.078;11.650;2023-01-26T11:54:54;9.47;;;6.03;;
14611;SDS011;7392;52.078;11.650;2023-01-26T11:57:30;9.07;;;6.17;;
14611;SDS011;7392;52.078;11.650;2023-01-26T12:00:10;9.10;;;6.07;;
14611;SDS011;7392;52.078;11.650;2023-01-26T12:02:56;9.97;;;6.37;;
14611;SDS011;7392;52.078;11.650;2023-01-26T12:05:30;9.40;;;6.50;;
14611;SDS011;7392;52.078;11.650;2023-01-26T12:08:10;9.17;;;5.97;;
14611;SDS011;7392;52.078;11.650;2023-01-26T12:10:42;13.07;;;7.23;;
14611;SDS011;7392;52.078;11.650;2023-01-26T12:13:17;12.87;;;7.80;;
14611;SDS011;7392;52.078;11.650;2023-01-26T12:15:57;10.20;;;7.23;;
14611;SDS011;7392;52.078;11.650;2023-01-26T12:18:32;10.17;;;6.20;;
14611;SDS011;7392;52.078;11.650;2023-01-26T12:21:25;8.83;;;6.13;;
14611;SDS011;7392;52.078;11.650;2023-01-26T12:23:57;9.37;;;6.20;;
14611;SDS011;7392;52.078;11.650;2023-01-26T12:26:31;11.50;;;7.20;;
14611;SDS011;7392;52.078;11.650;2023-01-26T12:29:02;10.87;;;7.10;;
14611;SDS011;7392;52.078;11.650;2023-01-26T12:31:39;10.57;;;7.43;;
14611;SDS011;7392;52.078;11.650;2023-01-26T12:34:12;14.33;;;8.73;;
14611;SDS011;7392;52.078;11.650;2023-01-26T12:36:43;13.70;;;8.23;;
14611;SDS011;7392;52.078;11.650;2023-01-26T12:39:19;12.60;;;7.63;;
14611;SDS011;7392;52.078;11.650;2023-01-26T12:42:01;12.03;;;7.77;;
14611;SDS011;7392;52.078;11.650;2023-01-26T12:44:39;10.37;;;7.00;;
14611;SDS011;7392;52.078;11.650;2023-01-26T12:47:10;12.83;;;7.97;;
14611;SDS011;7392;52.078;11.650;2023-01-26T12:49:45;13.50;;;7.80;;
14611;SDS011;7392;52.078;11.650;2023-01-26T12:52:21;13.67;;;7.93;;
14611;SDS011;7392;52.078;11.650;2023-01-26T12:54:56;12.70;;;8.03;;
14611;SDS011;7392;52.078;11.650;2023-01-26T12:57:30;11.90;;;7.37;;
14611;SDS011;7392;52.078;11.650;2023-01-26T13:00:04;10.57;;;7.03;;
14611;SDS011;7392;52.078;11.650;2023-01-26T13:02:35;10.70;;;6.97;;
14611;SDS011;7392;52.078;11.650;2023-01-26T13:05:03;10.30;;;7.13;;
14611;SDS011;7392;52.078;11.650;2023-01-26T13:07:35;11.33;;;7.33;;
14611;SDS011;7392;52.078;11.650;2023-01-26T13:10:08;12.37;;;7.33;;
14611;SDS011;7392;52.078;11.650;2023-01-26T13:12:48;11.33;;;7.20;;
14611;SDS011;7392;52.078;11.650;2023-01-26T13:15:17;11.47;;;7.23;;
14611;SDS011;7392;52.078;11.650;2023-01-26T13:17:48;11.07;;;6.83;;
14611;SDS011;7392;52.078;11.650;2023-01-26T13:20:24;7.97;;;5.80;;
14611;SDS011;7392;52.078;11.650;2023-01-26T13:23:36;10.93;;;7.03;;
14611;SDS011;7392;52.078;11.650;2023-01-26T13:26:13;10.93;;;6.87;;
14611;SDS011;7392;52.078;11.650;2023-01-26T13:28:43;8.47;;;5.93;;
14611;SDS011;7392;52.078;11.650;2023-01-26T13:31:12;11.23;;;6.73;;
14611;SDS011;7392;52.078;11.650;2023-01-26T13:33:40;11.00;;;6.97;;
14611;SDS011;7392;52.078;11.650;2023-01-26T13:36:10;11.17;;;6.63;;
14611;SDS011;7392;52.078;11.650;2023-01-26T13:38:46;9.43;;;6.67;;
14611;SDS011;7392;52.078;11.650;2023-01-26T13:41:21;11.73;;;7.47;;
14611;SDS011;7392;52.078;11.650;2023-01-26T13:43:49;12.07;;;7.67;;
14611;SDS011;7392;52.078;11.650;2023-01-26T13:46:22;12.60;;;8.23;;
14611;SDS011;7392;52.078;11.650;2023-01-26T13:48:55;13.23;;;8.43;;
14611;SDS011;7392;52.078;11.650;2023-01-26T13:51:23;14.30;;;9.07;;
14611;SDS011;7392;52.078;11.650;2023-01-26T13:53:57;16.07;;;8.73;;
14611;SDS011;7392;52.078;11.650;2023-01-26T13:56:29;13.00;;;7.87;;
14611;SDS011;7392;52.078;11.650;2023-01-26T13:59:02;13.90;;;7.70;;
14611;SDS011;7392;52.078;11.650;2023-01-26T14:01:35;11.40;;;6.80;;
14611;SDS011;7392;52.078;11.650;2023-01-26T14:04:10;11.97;;;7.50;;
14611;SDS011;7392;52.078;11.650;2023-01-26T14:06:40;12.53;;;8.00;;
14611;SDS011;7392;52.078;11.650;2023-01-26T14:09:11;16.53;;;9.37;;
14611;SDS011;7392;52.078;11.650;2023-01-26T14:11:40;16.53;;;8.93;;
14611;SDS011;7392;52.078;11.650;2023-01-26T14:14:16;15.77;;;9.23;;
14611;SDS011;7392;52.078;11.650;2023-01-26T14:16:49;15.17;;;8.93;;
14611;SDS011;7392;52.078;11.650;2023-01-26T14:19:17;15.10;;;9.03;;
14611;SDS011;7392;52.078;11.650;2023-01-26T14:21:48;14.87;;;9.47;;
14611;SDS011;7392;52.078;11.650;2023-01-26T14:24:24;14.57;;;8.60;;
14611;SDS011;7392;52.078;11.650;2023-01-26T14:26:54;13.20;;;8.10;;
14611;SDS011;7392;52.078;11.650;2023-01-26T14:29:22;14.23;;;8.67;;
14611;SDS011;7392;52.078;11.650;2023-01-26T14:31:52;14.97;;;9.07;;
14611;SDS011;7392;52.078;11.650;2023-01-26T14:34:22;13.77;;;8.63;;
14611;SDS011;7392;52.078;11.650;2023-01-26T14:37:05;16.20;;;9.07;;
14611;SDS011;7392;52.078;11.650;2023-01-26T14:39:40;15.57;;;8.97;;
14611;SDS011;7392;52.078;11.650;2023-01-26T14:42:11;13.20;;;7.80;;
14611;SDS011;7392;52.078;11.650;2023-01-26T14:44:40;16.13;;;9.17;;
14611;SDS011;7392;52.078;11.650;2023-01-26T14:47:09;14.30;;;8.10;;
14611;SDS011;7392;52.078;11.650;2023-01-26T14:49:43;12.63;;;8.03;;
14611;SDS011;7392;52.078;11.650;2023-01-26T14:52:16;11.27;;;6.90;;
14611;SDS011;7392;52.078;11.650;2023-01-26T14:54:51;10.37;;;6.90;;
14611;SDS011;7392;52.078;11.650;2023-01-26T14:57:20;11.43;;;7.13;;
14611;SDS011;7392;52.078;11.650;2023-01-26T14:59:52;11.40;;;6.90;;
14611;SDS011;7392;52.078;11.650;2023-01-26T15:02:22;12.57;;;7.60;;
14611;SDS011;7392;52.078;11.650;2023-01-26T15:04:51;11.00;;;7.07;;
14611;SDS011;7392;52.078;11.650;2023-01-26T15:07:31;11.23;;;6.80;;
14611;SDS011;7392;52.078;11.650;2023-01-26T15:12:59;11.73;;;6.83;;
14611;SDS011;7392;52.078;11.650;2023-01-26T15:15:29;11.10;;;6.77;;
14611;SDS011;7392;52.078;11.650;2023-01-26T15:18:00;13.83;;;7.77;;